createdAt,value
2023-02-20T00:00:42.401Z,100450.09
2023-02-20T00:03:13.363Z,100467.22
2023-02-20T00:05:43.600Z,100465.63
2023-02-20T00:08:13.877Z,100473.50
2023-02-20T00:10:44.244Z,100479.66
2023-02-20T00:13:17.034Z,100479.47
2023-02-20T00:15:47.264Z,100491.06
2023-02-20T00:18:17.536Z,100489.34
2023-02-20T00:20:47.980Z,100491.97
2023-02-20T00:23:20.781Z,100488.44
2023-02-20T00:25:51.107Z,100492.88
2023-02-20T00:28:24.248Z,100492.19
2023-02-20T00:30:54.937Z,100491.41
2023-02-20T00:33:25.179Z,100485.25
2023-02-20T00:35:55.431Z,100487.50
2023-02-20T00:38:25.680Z,100486.00
2023-02-20T00:40:55.854Z,100485.09
2023-02-20T00:43:31.954Z,100482.78
2023-02-20T00:46:02.142Z,100482.31
2023-02-20T00:48:32.387Z,100482.09
2023-02-20T00:51:05.615Z,100479.47
2023-02-20T00:53:35.793Z,100485.72
2023-02-20T00:56:09.385Z,100478.84
2023-02-20T00:58:42.395Z,100473.03
2023-02-20T01:01:12.820Z,100481.75
2023-02-20T01:03:43.267Z,100469.31
2023-02-20T01:06:14.198Z,100471.78
2023-02-20T01:08:44.536Z,100480.72
2023-02-20T01:11:14.972Z,100480.13
2023-02-20T01:13:47.797Z,100478.34
2023-02-20T01:16:18.093Z,100476.03
2023-02-20T01:18:48.355Z,100479.97
2023-02-20T01:21:19.021Z,100484.91
2023-02-20T01:23:49.254Z,100483.19
2023-02-20T01:26:19.433Z,100482.50
2023-02-20T01:28:53.282Z,100481.75
2023-02-20T01:31:23.674Z,100486.47
2023-02-20T01:33:53.986Z,100483.16
2023-02-20T01:36:24.224Z,100485.38
2023-02-20T01:38:54.455Z,100484.44
2023-02-20T01:41:26.240Z,100498.44
2023-02-20T01:43:59.019Z,100474.81
2023-02-20T01:46:47.018Z,100500.38
2023-02-20T01:49:22.819Z,100504.22
2023-02-20T01:51:59.858Z,100508.69
2023-02-20T01:54:30.879Z,100512.16
2023-02-20T01:57:05.588Z,100510.59
2023-02-20T01:59:42.955Z,100508.19
2023-02-20T02:02:14.554Z,100511.03
2023-02-20T02:04:47.056Z,100503.25
2023-02-20T02:07:18.123Z,100512.25
2023-02-20T02:09:56.073Z,100510.53
2023-02-20T02:12:26.852Z,100500.34
2023-02-20T02:15:01.132Z,100506.63
2023-02-20T02:17:41.100Z,100508.59
2023-02-20T02:20:52.403Z,100510.66
2023-02-20T02:23:57.514Z,100502.81
2023-02-20T02:26:42.051Z,100500.28
2023-02-20T02:29:48.038Z,100509.09
2023-02-20T02:32:45.301Z,100517.97
2023-02-20T02:35:33.379Z,100525.09
2023-02-20T02:38:18.286Z,100529.63
2023-02-20T02:40:58.126Z,100531.38
2023-02-20T02:43:38.427Z,100531.44
2023-02-20T02:46:17.182Z,100532.56
2023-02-20T02:48:52.755Z,100543.53
2023-02-20T02:51:29.002Z,100550.53
2023-02-20T02:54:13.604Z,100548.75
2023-02-20T02:56:46.146Z,100544.44
2023-02-20T02:59:24.800Z,100543.59
2023-02-20T03:02:02.605Z,100545.78
2023-02-20T03:04:35.781Z,100563.94
2023-02-20T03:07:11.625Z,100566.59
2023-02-20T03:09:52.874Z,100556.59
2023-02-20T03:12:24.941Z,100548.75
2023-02-20T03:15:14.778Z,100555.69
2023-02-20T03:17:51.974Z,100550.16
2023-02-20T03:20:25.306Z,100548.16
2023-02-20T03:22:58.713Z,100555.72
2023-02-20T03:25:36.918Z,100557.28
2023-02-20T03:28:13.291Z,100575.78
2023-02-20T03:30:48.134Z,100570.63
2023-02-20T03:33:35.533Z,100575.16
2023-02-20T03:36:22.031Z,100574.31
2023-02-20T03:39:12.583Z,100570.38
2023-02-20T03:41:59.600Z,100591.34
2023-02-20T03:44:31.266Z,100581.94
2023-02-20T03:47:04.414Z,100582.00
2023-02-20T03:49:39.035Z,100586.53
2023-02-20T03:52:09.567Z,100585.81
2023-02-20T03:54:40.052Z,100578.34
2023-02-20T03:57:16.178Z,100591.41
2023-02-20T03:59:51.356Z,100601.22
2023-02-20T04:02:25.920Z,100609.25
2023-02-20T04:05:00.613Z,100608.41
2023-02-20T04:07:36.610Z,100610.28
2023-02-20T04:10:12.664Z,100608.66
2023-02-20T04:12:48.840Z,100598.28
2023-02-20T04:15:20.474Z,100595.72
2023-02-20T04:17:55.671Z,100581.88
2023-02-20T04:20:26.250Z,100575.03
2023-02-20T04:23:01.183Z,100562.06
2023-02-20T04:25:37.337Z,100557.75
2023-02-20T04:28:10.708Z,100555.22
2023-02-20T04:30:43.838Z,100571.81
2023-02-20T04:33:15.109Z,100573.50
2023-02-20T04:35:45.755Z,100570.81
2023-02-20T04:38:19.083Z,100564.75
2023-02-20T04:40:52.670Z,100558.94
2023-02-20T04:43:25.614Z,100569.13
2023-02-20T04:45:55.976Z,100572.66
2023-02-20T04:48:26.243Z,100576.09
2023-02-20T04:50:56.500Z,100571.75
2023-02-20T04:53:26.763Z,100570.81
2023-02-20T04:55:57.054Z,100576.03
2023-02-20T04:58:29.866Z,100577.81
2023-02-20T05:01:00.024Z,100579.63
2023-02-20T05:03:30.231Z,100576.97
2023-02-20T05:06:00.415Z,100575.25
2023-02-20T05:08:33.893Z,100578.91
2023-02-20T05:11:04.051Z,100579.81
2023-02-20T05:13:39.605Z,100582.50
2023-02-20T05:16:10.453Z,100585.19
2023-02-20T05:18:41.044Z,100579.19
2023-02-20T05:21:23.623Z,100581.00
2023-02-20T05:23:53.874Z,100583.69
2023-02-20T05:26:25.090Z,100587.25
2023-02-20T05:28:58.142Z,100593.28
2023-02-20T05:31:28.462Z,100594.91
2023-02-20T05:33:58.710Z,100596.84
2023-02-20T05:36:29.393Z,100602.00
2023-02-20T05:38:59.736Z,100607.16
2023-02-20T05:41:30.124Z,100604.97
2023-02-20T05:44:02.947Z,100605.66
2023-02-20T05:46:33.133Z,100598.84
2023-02-20T05:49:03.827Z,100588.25
2023-02-20T05:51:35.017Z,100603.06
2023-02-20T05:54:06.025Z,100601.34
2023-02-20T05:56:36.239Z,100598.50
2023-02-20T05:59:09.028Z,100612.31
2023-02-20T06:01:39.198Z,100617.97
2023-02-20T06:04:09.845Z,100610.97
2023-02-20T06:06:41.851Z,100609.00
2023-02-20T06:09:16.744Z,100611.47
2023-02-20T06:11:52.707Z,100609.22
2023-02-20T06:14:30.460Z,100609.06
2023-02-20T06:17:01.041Z,100603.00
2023-02-20T06:19:31.273Z,100619.44
2023-02-20T06:22:04.833Z,100619.97
2023-02-20T06:24:37.834Z,100624.94
2023-02-20T06:27:11.187Z,100621.56
2023-02-20T06:29:44.152Z,100619.38
2023-02-20T06:32:14.306Z,100629.69
2023-02-20T06:34:46.932Z,100621.72
2023-02-20T06:37:17.202Z,100633.06
2023-02-20T06:39:49.527Z,100633.13
2023-02-20T06:42:19.882Z,100648.91
2023-02-20T06:44:52.722Z,100642.75
2023-02-20T06:47:23.092Z,100647.31
2023-02-20T06:49:54.048Z,100653.91
2023-02-20T06:52:24.359Z,100657.00
2023-02-20T06:54:54.576Z,100654.56
2023-02-20T06:57:24.855Z,100649.19
2023-02-20T06:59:58.219Z,100641.41
2023-02-20T07:02:28.627Z,100643.25
2023-02-20T07:04:58.911Z,100636.47
2023-02-20T07:07:29.058Z,100628.31
2023-02-20T07:10:01.852Z,100641.00
2023-02-20T07:12:36.144Z,100645.13
2023-02-20T07:15:14.038Z,100635.81
2023-02-20T07:17:44.230Z,100621.22
2023-02-20T07:20:16.860Z,100623.50
2023-02-20T07:22:54.464Z,100616.47
2023-02-20T07:25:24.667Z,100626.97
2023-02-20T07:27:54.886Z,100631.91
2023-02-20T07:30:28.048Z,100631.59
2023-02-20T07:32:58.390Z,100632.34
2023-02-20T07:35:28.555Z,100626.22
2023-02-20T07:37:58.855Z,100639.50
2023-02-20T07:40:30.246Z,100629.59
2023-02-20T07:43:00.639Z,100629.78
2023-02-20T07:45:33.816Z,100629.22
2023-02-20T07:48:04.287Z,100627.50
2023-02-20T07:50:34.571Z,100613.03
2023-02-20T07:53:04.896Z,100611.72
2023-02-20T07:55:35.046Z,100615.13
2023-02-20T07:58:05.494Z,100617.16
2023-02-20T08:00:38.785Z,100602.00
2023-02-20T08:03:09.195Z,100614.31
2023-02-20T08:05:48.775Z,100613.50
2023-02-20T08:08:20.000Z,100621.06
2023-02-20T08:10:57.011Z,100610.16
2023-02-20T08:13:30.675Z,100602.41
2023-02-20T08:16:03.518Z,100592.66
2023-02-20T08:18:34.135Z,100589.56
2023-02-20T08:21:04.320Z,100588.41
2023-02-20T08:23:34.539Z,100592.84
2023-02-20T08:26:07.262Z,100612.66
2023-02-20T08:28:37.506Z,100612.19
2023-02-20T08:31:23.038Z,100602.22
2023-02-20T08:34:01.316Z,100592.06
2023-02-20T08:36:31.521Z,100587.56
2023-02-20T08:39:03.648Z,100597.44
2023-02-20T08:41:35.154Z,100582.50
2023-02-20T08:44:05.510Z,100580.03
2023-02-20T08:46:38.403Z,100587.94
2023-02-20T08:49:08.672Z,100585.97
2023-02-20T08:51:38.927Z,100585.81
2023-02-20T08:54:09.266Z,100576.00
2023-02-20T08:56:39.451Z,100575.47
2023-02-20T08:59:09.632Z,100577.72
2023-02-20T09:01:44.166Z,100590.31
2023-02-20T09:04:15.890Z,100576.31
2023-02-20T09:06:48.237Z,100574.00
2023-02-20T09:09:21.722Z,100568.94
2023-02-20T09:11:51.941Z,100562.88
2023-02-20T09:14:22.297Z,100567.13
2023-02-20T09:16:57.826Z,100556.28
2023-02-20T09:19:28.168Z,100550.66
2023-02-20T09:21:58.495Z,100569.59
2023-02-20T09:24:32.263Z,100557.38
2023-02-20T09:27:02.502Z,100559.47
2023-02-20T09:29:34.215Z,100545.59
2023-02-20T09:32:07.906Z,100546.72
2023-02-20T09:34:38.589Z,100528.94
2023-02-20T09:37:08.785Z,100525.09
2023-02-20T09:39:39.542Z,100531.22
2023-02-20T09:42:21.517Z,100533.69
2023-02-20T09:45:02.573Z,100537.19
2023-02-20T09:47:53.349Z,100535.34
2023-02-20T09:50:33.373Z,100538.88
2023-02-20T09:53:09.783Z,100546.91
2023-02-20T09:55:43.642Z,100560.19
2023-02-20T09:58:24.832Z,100552.72
2023-02-20T10:00:55.864Z,100533.28
2023-02-20T10:03:37.568Z,100530.56
2023-02-20T10:06:18.240Z,100529.88
2023-02-20T10:08:51.585Z,100528.75
2023-02-20T10:11:43.906Z,100524.03
2023-02-20T10:14:37.018Z,100521.38
2023-02-20T10:17:16.338Z,100513.25
2023-02-20T10:19:55.558Z,100513.47
2023-02-20T10:22:33.337Z,100505.66
2023-02-20T10:25:17.400Z,100509.38
2023-02-20T10:27:57.305Z,100502.25
2023-02-20T10:30:32.873Z,100503.22
2023-02-20T10:33:25.380Z,100476.81
2023-02-20T10:36:04.072Z,100458.69
2023-02-20T10:38:41.630Z,100481.69
2023-02-20T10:41:21.391Z,100482.84
2023-02-20T10:43:58.647Z,100478.63
2023-02-20T10:46:48.250Z,100480.09
2023-02-20T10:49:23.615Z,100483.53
2023-02-20T10:52:02.637Z,100480.16
2023-02-20T10:54:42.560Z,100478.88
2023-02-20T10:57:19.784Z,100478.50
2023-02-20T10:59:59.510Z,100464.38
2023-02-20T11:02:37.552Z,100456.66
2023-02-20T11:05:13.289Z,100451.25
2023-02-20T11:07:46.298Z,100452.97
2023-02-20T11:10:16.492Z,100451.72
2023-02-20T11:12:51.899Z,100444.31
2023-02-20T11:15:24.674Z,100426.94
2023-02-20T11:17:58.309Z,100424.34
2023-02-20T11:20:46.509Z,100406.44
2023-02-20T11:23:47.381Z,100416.16
2023-02-20T11:26:28.808Z,100407.88
2023-02-20T11:29:07.156Z,100409.09
2023-02-20T11:31:38.812Z,100401.06
2023-02-20T11:34:16.980Z,100404.47
2023-02-20T11:36:50.077Z,100388.22
2023-02-20T11:39:32.767Z,100375.19
2023-02-20T11:42:14.410Z,100374.31
2023-02-20T11:44:44.767Z,100354.63
2023-02-20T11:47:25.106Z,100358.34
2023-02-20T11:50:19.900Z,100344.47
2023-02-20T11:53:08.083Z,100348.63
2023-02-20T11:55:42.590Z,100338.84
2023-02-20T11:58:25.404Z,100336.03
2023-02-20T12:00:58.121Z,100339.44
2023-02-20T12:03:31.352Z,100339.44
2023-02-20T12:06:03.373Z,100344.50
2023-02-20T12:08:49.682Z,100338.19
2023-02-20T12:11:24.852Z,100340.22
2023-02-20T12:13:56.748Z,100337.41
2023-02-20T12:16:43.298Z,100342.31
2023-02-20T12:19:21.656Z,100324.31
2023-02-20T12:22:07.221Z,100321.50
2023-02-20T12:24:58.067Z,100311.91
2023-02-20T12:27:51.004Z,100312.81
2023-02-20T12:30:49.962Z,100295.88
2023-02-20T12:33:48.728Z,100301.03
2023-02-20T12:36:30.165Z,100304.09
2023-02-20T12:39:02.752Z,100292.22
2023-02-20T12:41:51.383Z,100287.66
2023-02-20T12:44:40.252Z,100290.53
2023-02-20T12:47:24.263Z,100283.53
2023-02-20T12:50:24.681Z,100289.69
2023-02-20T12:53:13.772Z,100294.63
2023-02-20T12:55:54.067Z,100298.88
2023-02-20T12:58:33.994Z,100287.69
2023-02-20T13:01:11.173Z,100290.81
2023-02-20T13:03:50.219Z,100296.44
2023-02-20T13:06:29.499Z,100289.00
2023-02-20T13:09:07.960Z,100267.69
2023-02-20T13:11:44.677Z,100289.97
2023-02-20T13:14:29.866Z,100281.19
2023-02-20T13:17:11.726Z,100287.13
2023-02-20T13:19:45.324Z,100284.81
2023-02-20T13:22:16.744Z,100291.44
2023-02-20T13:24:47.205Z,100286.16
2023-02-20T13:27:33.380Z,100284.13
2023-02-20T13:30:13.536Z,100266.16
2023-02-20T13:32:46.724Z,100275.66
2023-02-20T13:35:47.847Z,100270.03
2023-02-20T13:38:20.789Z,100262.59
2023-02-20T13:41:08.207Z,100266.13
2023-02-20T13:43:39.399Z,100258.06
2023-02-20T13:46:30.532Z,100257.59
2023-02-20T13:49:11.052Z,100272.13
2023-02-20T13:51:41.645Z,100265.09
2023-02-20T13:54:36.991Z,100239.94
2023-02-20T13:57:20.458Z,100232.25
2023-02-20T13:59:54.220Z,100244.63
2023-02-20T14:02:30.495Z,100246.41
2023-02-20T14:05:06.622Z,100239.72
2023-02-20T14:07:40.726Z,100231.56
2023-02-20T14:10:19.835Z,100224.94
2023-02-20T14:12:58.175Z,100228.19
2023-02-20T14:15:28.657Z,100223.97
2023-02-20T14:18:00.289Z,100221.22
2023-02-20T14:20:37.623Z,100218.91
2023-02-20T14:23:13.232Z,100198.34
2023-02-20T14:25:59.806Z,100189.84
2023-02-20T14:28:31.794Z,100178.31
2023-02-20T14:31:21.307Z,100180.13
2023-02-20T14:33:52.872Z,100181.44
2023-02-20T14:36:39.788Z,100165.84
2023-02-20T14:39:26.022Z,100165.50
2023-02-20T14:41:58.686Z,100174.72
2023-02-20T14:44:33.044Z,100157.72
2023-02-20T14:47:11.577Z,100172.34
2023-02-20T14:49:43.224Z,100174.00
2023-02-20T14:52:22.636Z,100168.41
2023-02-20T14:55:03.699Z,100171.03
2023-02-20T14:57:34.935Z,100181.13
2023-02-20T15:00:25.585Z,100152.56
2023-02-20T15:02:59.560Z,100169.34
2023-02-20T15:05:34.420Z,100158.19
2023-02-20T15:08:23.480Z,100149.19
2023-02-20T15:10:55.519Z,100137.66
2023-02-20T15:13:29.970Z,100139.59
2023-02-20T15:16:09.700Z,100137.19
2023-02-20T15:18:41.962Z,100117.41
2023-02-20T15:21:16.146Z,100112.03
2023-02-20T15:23:49.843Z,100106.25
2023-02-20T15:26:30.492Z,100087.06
2023-02-20T15:29:15.329Z,100090.78
2023-02-20T15:31:46.728Z,100077.81
2023-02-20T15:34:25.201Z,100074.09
2023-02-20T15:36:58.768Z,100075.78
2023-02-20T15:39:31.868Z,100077.59
2023-02-20T15:42:03.127Z,100071.03
2023-02-20T15:44:35.563Z,100057.81
2023-02-20T15:47:05.749Z,100076.28
2023-02-20T15:49:36.182Z,100058.53
2023-02-20T15:52:09.888Z,100057.84
2023-02-20T15:54:43.308Z,100055.19
2023-02-20T15:57:19.999Z,100038.88
2023-02-20T15:59:50.716Z,100039.34
2023-02-20T16:02:24.850Z,100022.25
2023-02-20T16:04:55.491Z,100024.50
2023-02-20T16:07:25.746Z,100024.28
2023-02-20T16:10:00.639Z,100026.91
2023-02-20T16:12:33.484Z,100035.84
2023-02-20T16:15:04.057Z,100042.72
2023-02-20T16:17:38.062Z,100044.53
2023-02-20T16:20:16.378Z,100050.72
2023-02-20T16:22:47.454Z,100055.53
2023-02-20T16:25:23.139Z,100036.47
2023-02-20T16:27:56.381Z,100026.06
2023-02-20T16:30:33.857Z,100038.59
2023-02-20T16:33:05.267Z,100031.41
2023-02-20T16:35:37.612Z,100021.22
2023-02-20T16:38:07.954Z,100015.56
2023-02-20T16:40:41.745Z,100013.16
2023-02-20T16:43:15.620Z,100005.88
2023-02-20T16:45:45.722Z,100004.19
2023-02-20T16:48:18.989Z,100004.53
2023-02-20T16:50:53.158Z,99993.50
2023-02-20T16:53:23.918Z,99978.19
2023-02-20T16:55:56.790Z,99976.88
2023-02-20T16:58:27.643Z,99964.06
2023-02-20T17:00:58.349Z,99960.22
2023-02-20T17:03:29.630Z,99967.19
2023-02-20T17:06:01.069Z,99971.88
2023-02-20T17:08:31.439Z,99982.88
2023-02-20T17:11:04.208Z,99979.97
2023-02-20T17:13:34.830Z,99975.41
2023-02-20T17:16:05.133Z,99968.59
2023-02-20T17:18:35.413Z,99968.59
2023-02-20T17:21:06.059Z,99968.84
2023-02-20T17:23:36.806Z,99957.56
2023-02-20T17:26:13.811Z,99965.84
2023-02-20T17:28:44.394Z,99959.84
2023-02-20T17:31:20.050Z,99962.84
2023-02-20T17:33:50.497Z,99958.88
2023-02-20T17:36:20.954Z,99966.69
2023-02-20T17:38:51.220Z,99960.19
2023-02-20T17:41:25.003Z,99964.50
2023-02-20T17:43:57.832Z,99971.41
2023-02-20T17:46:28.150Z,99978.59
2023-02-20T17:48:58.723Z,99967.31
2023-02-20T17:51:29.529Z,99970.31
2023-02-20T17:53:59.989Z,99975.78
2023-02-20T17:56:33.071Z,99979.44
2023-02-20T17:59:03.502Z,99969.13
2023-02-20T18:01:33.737Z,99972.66
2023-02-20T18:04:04.740Z,99958.88
2023-02-20T18:06:35.974Z,99958.75
2023-02-20T18:09:08.329Z,99946.16
2023-02-20T18:11:42.925Z,99932.75
2023-02-20T18:14:13.764Z,99944.53
2023-02-20T18:16:44.101Z,99932.19
2023-02-20T18:19:17.957Z,99925.81
2023-02-20T18:21:52.861Z,99918.88
2023-02-20T18:24:25.560Z,99915.28
2023-02-20T18:26:59.346Z,99892.97
2023-02-20T18:29:30.323Z,99903.59
2023-02-20T18:32:01.653Z,99893.88
2023-02-20T18:34:32.640Z,99903.34
2023-02-20T18:37:03.400Z,99899.09
2023-02-20T18:39:36.738Z,99907.59
2023-02-20T18:42:09.954Z,99907.19
2023-02-20T18:44:40.527Z,99909.41
2023-02-20T18:47:10.966Z,99897.19
2023-02-20T18:49:41.304Z,99897.56
2023-02-20T18:52:14.413Z,99897.19
2023-02-20T18:54:46.053Z,99902.50
2023-02-20T18:57:19.363Z,99893.31
2023-02-20T18:59:50.177Z,99882.44
2023-02-20T19:02:24.051Z,99881.00
2023-02-20T19:04:58.105Z,99867.59
2023-02-20T19:07:29.470Z,99858.41
2023-02-20T19:10:01.736Z,99860.84
2023-02-20T19:12:34.911Z,99842.56
2023-02-20T19:15:07.223Z,99843.41
2023-02-20T19:17:38.399Z,99828.56
2023-02-20T19:20:18.877Z,99839.94
2023-02-20T19:22:49.915Z,99838.25
2023-02-20T19:25:22.138Z,99831.56
2023-02-20T19:27:55.331Z,99821.72
2023-02-20T19:30:27.183Z,99818.56
2023-02-20T19:32:57.821Z,99816.50
2023-02-20T19:35:28.387Z,99818.84
2023-02-20T19:37:58.949Z,99816.16
2023-02-20T19:40:29.714Z,99810.88
2023-02-20T19:43:03.075Z,99823.69
2023-02-20T19:45:33.990Z,99827.66
2023-02-20T19:48:04.545Z,99821.16
2023-02-20T19:50:35.854Z,99820.69
2023-02-20T19:53:06.375Z,99825.97
2023-02-20T19:55:36.990Z,99822.13
2023-02-20T19:58:10.639Z,99829.56
2023-02-20T20:00:43.300Z,99825.13
2023-02-20T20:03:14.206Z,99817.94
2023-02-20T20:05:44.771Z,99824.09
2023-02-20T20:08:15.265Z,99829.56
2023-02-20T20:10:46.407Z,99825.13
2023-02-20T20:13:19.780Z,99815.22
2023-02-20T20:15:50.455Z,99813.47
2023-02-20T20:18:21.216Z,99807.59
2023-02-20T20:20:52.133Z,99808.06
2023-02-20T20:23:23.220Z,99801.84
2023-02-20T20:25:53.770Z,99804.59
2023-02-20T20:28:27.232Z,99808.06
2023-02-20T20:30:57.584Z,99801.66
2023-02-20T20:33:28.138Z,99787.63
2023-02-20T20:35:58.608Z,99783.41
2023-02-20T20:38:28.977Z,99785.56
2023-02-20T20:41:01.005Z,99777.16
2023-02-20T20:43:33.970Z,99767.66
2023-02-20T20:46:05.195Z,99782.72
2023-02-20T20:48:35.691Z,99776.97
2023-02-20T20:51:06.098Z,99769.84
2023-02-20T20:53:37.718Z,99762.56
2023-02-20T20:56:08.834Z,99755.09
2023-02-20T20:58:44.279Z,99753.50
2023-02-20T21:01:14.920Z,99753.69
2023-02-20T21:03:45.528Z,99752.50
2023-02-20T21:06:17.669Z,99754.78
2023-02-20T21:08:48.140Z,99752.00
2023-02-20T21:11:19.119Z,99745.06
2023-02-20T21:13:52.389Z,99751.38
2023-02-20T21:16:23.054Z,99740.75
2023-02-20T21:18:54.471Z,99740.81
2023-02-20T21:21:28.641Z,99724.66
2023-02-20T21:23:59.255Z,99727.63
2023-02-20T21:26:29.644Z,99723.56
2023-02-20T21:29:02.610Z,99729.81
2023-02-20T21:31:33.019Z,99731.34
2023-02-20T21:34:03.755Z,99723.44
2023-02-20T21:36:34.035Z,99721.31
2023-02-20T21:39:04.705Z,99707.94
2023-02-20T21:41:47.306Z,99712.13
2023-02-20T21:44:32.190Z,99698.50
2023-02-20T21:47:04.841Z,99703.94
2023-02-20T21:49:36.822Z,99693.72
2023-02-20T21:52:07.833Z,99709.28
2023-02-20T21:54:39.031Z,99701.75
2023-02-20T21:57:09.750Z,99697.66
2023-02-20T21:59:40.508Z,99683.31
2023-02-20T22:02:08.052Z,99677.81
2023-02-20T22:04:35.530Z,99671.09
2023-02-20T22:07:18.109Z,99672.31
2023-02-20T22:10:01.024Z,99671.75
2023-02-20T22:12:43.826Z,99669.38
2023-02-20T22:15:29.862Z,99655.75
2023-02-20T22:18:12.604Z,99654.75
2023-02-20T22:20:55.494Z,99658.25
2023-02-20T22:23:38.080Z,99656.75
2023-02-20T22:26:20.887Z,99654.84
2023-02-20T22:29:03.556Z,99652.31
2023-02-20T22:31:48.873Z,99651.84
2023-02-20T22:34:31.629Z,99643.44
2023-02-20T22:37:14.186Z,99649.91
2023-02-20T22:39:57.231Z,99642.88
2023-02-20T22:42:39.868Z,99642.97
2023-02-20T22:45:22.939Z,99628.25
2023-02-20T22:48:08.145Z,99632.34
2023-02-20T22:50:50.835Z,99636.03
2023-02-20T22:53:33.421Z,99642.38
2023-02-20T22:56:16.034Z,99644.22
2023-02-20T22:58:58.774Z,99646.03
2023-02-20T23:01:41.520Z,99642.91
2023-02-20T23:04:27.042Z,99649.97
2023-02-20T23:07:09.668Z,99646.31
2023-02-20T23:09:52.494Z,99650.81
2023-02-20T23:12:35.054Z,99644.47
2023-02-20T23:15:17.887Z,99639.25
2023-02-20T23:18:01.306Z,99646.41
2023-02-20T23:20:47.105Z,99641.28
2023-02-20T23:23:30.354Z,99604.56
2023-02-20T23:26:12.906Z,99623.69
2023-02-20T23:28:55.753Z,99621.78
2023-02-20T23:31:46.849Z,99619.16
2023-02-20T23:34:29.431Z,99618.78
2023-02-20T23:37:14.624Z,99618.78
2023-02-20T23:39:57.261Z,99612.34
2023-02-20T23:42:39.988Z,99606.47
2023-02-20T23:45:24.282Z,99596.66
2023-02-20T23:48:07.824Z,99603.13
2023-02-20T23:50:51.038Z,99571.69
2023-02-20T23:53:36.236Z,99602.16
2023-02-20T23:56:20.298Z,99601.09
2023-02-20T23:59:02.788Z,99601.22
